sensor_id;sensor_type;location;lat;lon;timestamp;temperature;humidity
1704;DHT22;849;48.780;9.216;2023-02-13T00:01:04;7.00;99.90
1704;DHT22;849;48.780;9.216;2023-02-13T00:03:29;6.90;99.90
1704;DHT22;849;48.780;9.216;2023-02-13T00:05:55;6.90;99.90
1704;DHT22;849;48.780;9.216;2023-02-13T00:08:21;6.90;99.90
1704;DHT22;849;48.780;9.216;2023-02-13T00:10:47;6.90;99.90
1704;DHT22;849;48.780;9.216;2023-02-13T00:13:13;6.90;99.90
1704;DHT22;849;48.780;9.216;2023-02-13T00:15:38;6.90;99.90
1704;DHT22;849;48.780;9.216;2023-02-13T00:18:04;6.90;99.90
1704;DHT22;849;48.780;9.216;2023-02-13T00:20:30;6.90;99.90
1704;DHT22;849;48.780;9.216;2023-02-13T00:22:57;6.80;99.90
1704;DHT22;849;48.780;9.216;2023-02-13T00:25:23;6.80;99.90
1704;DHT22;849;48.780;9.216;2023-02-13T00:27:50;6.80;99.90
1704;DHT22;849;48.780;9.216;2023-02-13T00:30:18;6.80;99.90
1704;DHT22;849;48.780;9.216;2023-02-13T00:32:44;6.80;99.90
1704;DHT22;849;48.780;9.216;2023-02-13T00:35:10;6.80;99.90
1704;DHT22;849;48.780;9.216;2023-02-13T00:37:35;6.80;99.90
1704;DHT22;849;48.780;9.216;2023-02-13T00:40:01;6.80;99.90
1704;DHT22;849;48.780;9.216;2023-02-13T00:42:27;6.80;99.90
1704;DHT22;849;48.780;9.216;2023-02-13T00:44:53;6.80;99.90
1704;DHT22;849;48.780;9.216;2023-02-13T00:47:19;6.80;99.90
1704;DHT22;849;48.780;9.216;2023-02-13T00:49:45;6.80;99.90
1704;DHT22;849;48.780;9.216;2023-02-13T00:52:11;6.80;99.90
1704;DHT22;849;48.780;9.216;2023-02-13T00:54:36;6.80;99.90
1704;DHT22;849;48.780;9.216;2023-02-13T00:57:02;6.70;99.90
1704;DHT22;849;48.780;9.216;2023-02-13T00:59:27;6.70;99.90
1704;DHT22;849;48.780;9.216;2023-02-13T01:01:53;6.70;99.90
1704;DHT22;849;48.780;9.216;2023-02-13T01:04:19;6.70;99.90
1704;DHT22;849;48.780;9.216;2023-02-13T01:06:45;6.60;99.90
1704;DHT22;849;48.780;9.216;2023-02-13T01:09:10;6.70;99.90
1704;DHT22;849;48.780;9.216;2023-02-13T01:11:36;6.60;99.90
1704;DHT22;849;48.780;9.216;2023-02-13T01:14:02;6.60;99.90
1704;DHT22;849;48.780;9.216;2023-02-13T01:16:28;6.60;99.90
1704;DHT22;849;48.780;9.216;2023-02-13T01:18:54;6.60;99.90
1704;DHT22;849;48.780;9.216;2023-02-13T01:21:21;6.60;99.90
1704;DHT22;849;48.780;9.216;2023-02-13T01:23:48;6.60;99.90
1704;DHT22;849;48.780;9.216;2023-02-13T01:26:19;6.60;99.90
1704;DHT22;849;48.780;9.216;2023-02-13T01:28:45;6.50;99.90
1704;DHT22;849;48.780;9.216;2023-02-13T01:31:11;6.50;99.90
1704;DHT22;849;48.780;9.216;2023-02-13T01:33:37;6.60;99.90
1704;DHT22;849;48.780;9.216;2023-02-13T01:36:08;6.50;99.90
1704;DHT22;849;48.780;9.216;2023-02-13T01:38:34;6.50;99.90
1704;DHT22;849;48.780;9.216;2023-02-13T01:41:00;6.40;99.90
1704;DHT22;849;48.780;9.216;2023-02-13T01:43:43;6.40;99.90
1704;DHT22;849;48.780;9.216;2023-02-13T01:46:11;6.50;99.90
1704;DHT22;849;48.780;9.216;2023-02-13T01:48:37;6.40;99.90
1704;DHT22;849;48.780;9.216;2023-02-13T01:51:06;6.30;99.90
1704;DHT22;849;48.780;9.216;2023-02-13T01:53:45;6.10;99.90
1704;DHT22;849;48.780;9.216;2023-02-13T01:56:32;6.00;99.90
1704;DHT22;849;48.780;9.216;2023-02-13T01:59:04;5.90;99.90
1704;DHT22;849;48.780;9.216;2023-02-13T02:01:31;6.00;99.90
1704;DHT22;849;48.780;9.216;2023-02-13T02:04:10;6.00;99.90
1704;DHT22;849;48.780;9.216;2023-02-13T02:06:42;6.00;99.90
1704;DHT22;849;48.780;9.216;2023-02-13T02:09:15;6.10;99.90
1704;DHT22;849;48.780;9.216;2023-02-13T02:11:50;6.10;99.90
1704;DHT22;849;48.780;9.216;2023-02-13T02:14:17;6.10;99.90
1704;DHT22;849;48.780;9.216;2023-02-13T02:16:43;6.10;99.90
1704;DHT22;849;48.780;9.216;2023-02-13T02:19:28;6.20;99.90
1704;DHT22;849;48.780;9.216;2023-02-13T02:36:51;6.10;99.90
1704;DHT22;849;48.780;9.216;2023-02-13T02:39:44;6.10;99.90
1704;DHT22;849;48.780;9.216;2023-02-13T02:42:17;6.20;99.90
1704;DHT22;849;48.780;9.216;2023-02-13T02:45:24;6.20;99.90
1704;DHT22;849;48.780;9.216;2023-02-13T02:47:58;6.20;99.90
1704;DHT22;849;48.780;9.216;2023-02-13T02:50:50;6.10;99.90
1704;DHT22;849;48.780;9.216;2023-02-13T02:58:55;6.10;99.90
1704;DHT22;849;48.780;9.216;2023-02-13T03:01:44;6.00;99.90
1704;DHT22;849;48.780;9.216;2023-02-13T03:04:37;6.10;99.90
1704;DHT22;849;48.780;9.216;2023-02-13T03:07:22;6.00;99.90
1704;DHT22;849;48.780;9.216;2023-02-13T03:09:55;6.10;99.90
1704;DHT22;849;48.780;9.216;2023-02-13T03:13:13;6.10;99.90
1704;DHT22;849;48.780;9.216;2023-02-13T03:15:51;6.00;99.90
1704;DHT22;849;48.780;9.216;2023-02-13T03:18:38;6.00;99.90
1704;DHT22;849;48.780;9.216;2023-02-13T03:25:10;5.90;99.90
1704;DHT22;849;48.780;9.216;2023-02-13T03:27:48;5.90;99.90
1704;DHT22;849;48.780;9.216;2023-02-13T03:36:14;5.80;99.90
1704;DHT22;849;48.780;9.216;2023-02-13T03:39:19;5.80;99.90
1704;DHT22;849;48.780;9.216;2023-02-13T03:42:00;5.80;99.90
1704;DHT22;849;48.780;9.216;2023-02-13T03:44:46;5.90;99.90
1704;DHT22;849;48.780;9.216;2023-02-13T03:47:35;5.90;99.90
1704;DHT22;849;48.780;9.216;2023-02-13T03:50:02;5.90;99.90
1704;DHT22;849;48.780;9.216;2023-02-13T03:55:15;5.80;99.90
1704;DHT22;849;48.780;9.216;2023-02-13T04:01:31;5.80;99.90
1704;DHT22;849;48.780;9.216;2023-02-13T04:07:01;5.80;99.90
1704;DHT22;849;48.780;9.216;2023-02-13T04:09:30;5.80;99.90
1704;DHT22;849;48.780;9.216;2023-02-13T04:12:15;5.70;99.90
1704;DHT22;849;48.780;9.216;2023-02-13T04:17:47;5.70;99.90
1704;DHT22;849;48.780;9.216;2023-02-13T04:20:14;5.70;99.90
1704;DHT22;849;48.780;9.216;2023-02-13T04:22:47;5.70;99.90
1704;DHT22;849;48.780;9.216;2023-02-13T04:25:15;5.70;99.90
1704;DHT22;849;48.780;9.216;2023-02-13T04:27:41;5.70;99.90
1704;DHT22;849;48.780;9.216;2023-02-13T04:30:08;5.70;99.90
1704;DHT22;849;48.780;9.216;2023-02-13T04:32:34;5.70;99.90
1704;DHT22;849;48.780;9.216;2023-02-13T04:35:00;5.70;99.90
1704;DHT22;849;48.780;9.216;2023-02-13T04:37:25;5.70;99.90
1704;DHT22;849;48.780;9.216;2023-02-13T04:39:51;5.70;99.90
1704;DHT22;849;48.780;9.216;2023-02-13T04:42:17;5.70;99.90
1704;DHT22;849;48.780;9.216;2023-02-13T04:44:43;5.70;99.90
1704;DHT22;849;48.780;9.216;2023-02-13T04:47:08;5.60;99.90
1704;DHT22;849;48.780;9.216;2023-02-13T04:49:34;5.60;99.90
1704;DHT22;849;48.780;9.216;2023-02-13T04:51:59;5.60;99.90
1704;DHT22;849;48.780;9.216;2023-02-13T04:54:25;5.60;99.90
1704;DHT22;849;48.780;9.216;2023-02-13T04:56:51;5.60;99.90
1704;DHT22;849;48.780;9.216;2023-02-13T04:59:16;5.60;99.90
1704;DHT22;849;48.780;9.216;2023-02-13T05:01:42;5.60;99.90
1704;DHT22;849;48.780;9.216;2023-02-13T05:04:07;5.60;99.90
1704;DHT22;849;48.780;9.216;2023-02-13T05:06:33;5.60;99.90
1704;DHT22;849;48.780;9.216;2023-02-13T05:08:59;5.50;99.90
1704;DHT22;849;48.780;9.216;2023-02-13T05:11:24;5.50;99.90
1704;DHT22;849;48.780;9.216;2023-02-13T05:13:50;5.50;99.90
1704;DHT22;849;48.780;9.216;2023-02-13T05:16:15;5.50;99.90
1704;DHT22;849;48.780;9.216;2023-02-13T05:18:41;5.50;99.90
1704;DHT22;849;48.780;9.216;2023-02-13T05:21:07;5.50;99.90
1704;DHT22;849;48.780;9.216;2023-02-13T05:23:51;5.50;99.90
1704;DHT22;849;48.780;9.216;2023-02-13T05:26:16;5.50;99.90
1704;DHT22;849;48.780;9.216;2023-02-13T05:28:42;5.50;99.90
1704;DHT22;849;48.780;9.216;2023-02-13T05:31:26;5.50;99.90
1704;DHT22;849;48.780;9.216;2023-02-13T05:33:52;5.50;99.90
1704;DHT22;849;48.780;9.216;2023-02-13T05:36:17;5.40;99.90
1704;DHT22;849;48.780;9.216;2023-02-13T05:38:43;5.50;99.90
1704;DHT22;849;48.780;9.216;2023-02-13T05:41:08;5.40;99.90
1704;DHT22;849;48.780;9.216;2023-02-13T05:43:34;5.40;99.80
1704;DHT22;849;48.780;9.216;2023-02-13T05:46:04;5.50;99.70
1704;DHT22;849;48.780;9.216;2023-02-13T05:48:31;5.40;99.60
1704;DHT22;849;48.780;9.216;2023-02-13T05:50:56;5.40;99.70
1704;DHT22;849;48.780;9.216;2023-02-13T05:53:22;5.40;99.70
1704;DHT22;849;48.780;9.216;2023-02-13T05:55:48;5.40;99.70
1704;DHT22;849;48.780;9.216;2023-02-13T05:58:17;5.30;99.70
1704;DHT22;849;48.780;9.216;2023-02-13T06:00:43;5.30;99.70
1704;DHT22;849;48.780;9.216;2023-02-13T06:03:09;5.30;99.70
1704;DHT22;849;48.780;9.216;2023-02-13T06:05:34;5.30;99.60
1704;DHT22;849;48.780;9.216;2023-02-13T06:08:00;5.30;99.70
1704;DHT22;849;48.780;9.216;2023-02-13T06:10:26;5.30;99.70
1704;DHT22;849;48.780;9.216;2023-02-13T06:12:51;5.30;99.80
1704;DHT22;849;48.780;9.216;2023-02-13T06:15:17;5.30;99.50
1704;DHT22;849;48.780;9.216;2023-02-13T06:17:43;5.30;99.50
1704;DHT22;849;48.780;9.216;2023-02-13T06:20:08;5.20;99.40
1704;DHT22;849;48.780;9.216;2023-02-13T06:22:34;5.20;99.50
1704;DHT22;849;48.780;9.216;2023-02-13T06:25:00;5.20;99.90
1704;DHT22;849;48.780;9.216;2023-02-13T06:27:25;5.30;99.70
1704;DHT22;849;48.780;9.216;2023-02-13T06:29:51;5.20;99.40
1704;DHT22;849;48.780;9.216;2023-02-13T06:32:17;5.20;99.50
1704;DHT22;849;48.780;9.216;2023-02-13T06:34:42;5.20;99.60
1704;DHT22;849;48.780;9.216;2023-02-13T06:37:08;5.20;99.70
1704;DHT22;849;48.780;9.216;2023-02-13T06:39:34;5.20;99.70
1704;DHT22;849;48.780;9.216;2023-02-13T06:41:59;5.20;99.70
1704;DHT22;849;48.780;9.216;2023-02-13T06:44:25;5.20;99.70
1704;DHT22;849;48.780;9.216;2023-02-13T06:46:51;5.20;99.70
1704;DHT22;849;48.780;9.216;2023-02-13T06:49:16;5.20;99.70
1704;DHT22;849;48.780;9.216;2023-02-13T06:51:42;5.20;99.90
1704;DHT22;849;48.780;9.216;2023-02-13T06:54:07;5.20;99.80
1704;DHT22;849;48.780;9.216;2023-02-13T06:56:33;5.20;99.80
1704;DHT22;849;48.780;9.216;2023-02-13T06:58:59;5.20;99.80
1704;DHT22;849;48.780;9.216;2023-02-13T07:01:24;5.10;99.90
1704;DHT22;849;48.780;9.216;2023-02-13T07:03:50;5.10;99.90
1704;DHT22;849;48.780;9.216;2023-02-13T07:06:17;5.10;99.90
1704;DHT22;849;48.780;9.216;2023-02-13T07:08:43;5.10;99.90
1704;DHT22;849;48.780;9.216;2023-02-13T07:11:18;5.00;99.90
1704;DHT22;849;48.780;9.216;2023-02-13T07:13:44;5.00;99.90
1704;DHT22;849;48.780;9.216;2023-02-13T07:16:10;5.00;99.90
1704;DHT22;849;48.780;9.216;2023-02-13T07:18:36;5.00;99.90
1704;DHT22;849;48.780;9.216;2023-02-13T07:21:01;5.10;99.90
1704;DHT22;849;48.780;9.216;2023-02-13T07:23:27;5.10;99.90
1704;DHT22;849;48.780;9.216;2023-02-13T07:25:53;5.10;99.90
1704;DHT22;849;48.780;9.216;2023-02-13T07:28:18;5.10;99.90
1704;DHT22;849;48.780;9.216;2023-02-13T07:30:44;5.10;99.90
1704;DHT22;849;48.780;9.216;2023-02-13T07:33:09;5.20;99.90
1704;DHT22;849;48.780;9.216;2023-02-13T07:35:35;5.20;99.90
1704;DHT22;849;48.780;9.216;2023-02-13T07:38:03;5.20;99.90
1704;DHT22;849;48.780;9.216;2023-02-13T07:40:28;5.20;99.90
1704;DHT22;849;48.780;9.216;2023-02-13T07:42:55;5.20;99.90
1704;DHT22;849;48.780;9.216;2023-02-13T07:45:21;5.20;99.90
1704;DHT22;849;48.780;9.216;2023-02-13T07:47:46;5.20;99.90
1704;DHT22;849;48.780;9.216;2023-02-13T07:50:12;5.20;99.90
1704;DHT22;849;48.780;9.216;2023-02-13T07:52:38;5.10;99.90
1704;DHT22;849;48.780;9.216;2023-02-13T07:55:04;5.20;99.90
1704;DHT22;849;48.780;9.216;2023-02-13T07:57:30;5.20;99.90
1704;DHT22;849;48.780;9.216;2023-02-13T07:59:56;5.20;99.90
1704;DHT22;849;48.780;9.216;2023-02-13T08:02:22;5.30;99.90
1704;DHT22;849;48.780;9.216;2023-02-13T08:04:48;5.30;99.90
1704;DHT22;849;48.780;9.216;2023-02-13T08:07:15;5.30;99.90
1704;DHT22;849;48.780;9.216;2023-02-13T08:09:44;5.40;99.90
1704;DHT22;849;48.780;9.216;2023-02-13T08:12:28;5.40;99.90
1704;DHT22;849;48.780;9.216;2023-02-13T08:14:54;5.40;99.90
1704;DHT22;849;48.780;9.216;2023-02-13T08:17:20;5.40;99.90
1704;DHT22;849;48.780;9.216;2023-02-13T08:19:45;5.40;99.90
1704;DHT22;849;48.780;9.216;2023-02-13T08:22:11;5.40;99.90
1704;DHT22;849;48.780;9.216;2023-02-13T08:24:37;5.50;99.90
1704;DHT22;849;48.780;9.216;2023-02-13T08:27:02;5.50;99.90
1704;DHT22;849;48.780;9.216;2023-02-13T08:29:28;5.50;99.90
1704;DHT22;849;48.780;9.216;2023-02-13T08:31:54;5.50;99.90
1704;DHT22;849;48.780;9.216;2023-02-13T08:34:19;5.50;99.90
1704;DHT22;849;48.780;9.216;2023-02-13T08:36:45;5.60;99.90
1704;DHT22;849;48.780;9.216;2023-02-13T08:39:11;5.70;99.90
1704;DHT22;849;48.780;9.216;2023-02-13T08:41:36;5.70;99.90
1704;DHT22;849;48.780;9.216;2023-02-13T08:44:02;5.70;99.90
1704;DHT22;849;48.780;9.216;2023-02-13T08:46:28;5.70;99.90
1704;DHT22;849;48.780;9.216;2023-02-13T08:48:53;5.70;99.90
1704;DHT22;849;48.780;9.216;2023-02-13T08:51:19;5.70;99.90
1704;DHT22;849;48.780;9.216;2023-02-13T08:53:45;5.70;99.90
1704;DHT22;849;48.780;9.216;2023-02-13T08:56:11;5.80;99.90
1704;DHT22;849;48.780;9.216;2023-02-13T08:58:37;5.80;99.90
1704;DHT22;849;48.780;9.216;2023-02-13T09:01:06;5.80;99.90
1704;DHT22;849;48.780;9.216;2023-02-13T09:03:33;5.80;99.90
1704;DHT22;849;48.780;9.216;2023-02-13T09:05:59;5.80;99.90
1704;DHT22;849;48.780;9.216;2023-02-13T09:08:25;5.80;99.90
1704;DHT22;849;48.780;9.216;2023-02-13T09:10:59;5.70;99.90
1704;DHT22;849;48.780;9.216;2023-02-13T09:13:27;5.70;99.90
1704;DHT22;849;48.780;9.216;2023-02-13T09:15:52;5.80;99.90
1704;DHT22;849;48.780;9.216;2023-02-13T09:18:18;5.70;99.90
1704;DHT22;849;48.780;9.216;2023-02-13T09:20:44;5.60;99.90
1704;DHT22;849;48.780;9.216;2023-02-13T09:23:09;5.70;99.90
1704;DHT22;849;48.780;9.216;2023-02-13T09:25:35;5.80;99.90
1704;DHT22;849;48.780;9.216;2023-02-13T09:28:01;5.80;99.90
1704;DHT22;849;48.780;9.216;2023-02-13T09:30:27;5.90;99.90
1704;DHT22;849;48.780;9.216;2023-02-13T09:32:53;6.00;99.90
1704;DHT22;849;48.780;9.216;2023-02-13T09:35:21;6.00;99.90
1704;DHT22;849;48.780;9.216;2023-02-13T09:37:47;6.00;99.90
1704;DHT22;849;48.780;9.216;2023-02-13T09:40:29;6.10;99.90
1704;DHT22;849;48.780;9.216;2023-02-13T09:43:13;6.10;99.90
1704;DHT22;849;48.780;9.216;2023-02-13T09:45:41;6.10;99.90
1704;DHT22;849;48.780;9.216;2023-02-13T09:48:13;6.10;99.90
1704;DHT22;849;48.780;9.216;2023-02-13T09:50:40;6.20;99.90
1704;DHT22;849;48.780;9.216;2023-02-13T09:53:06;6.30;99.90
1704;DHT22;849;48.780;9.216;2023-02-13T09:55:42;6.30;99.90
1704;DHT22;849;48.780;9.216;2023-02-13T09:58:25;6.30;99.90
1704;DHT22;849;48.780;9.216;2023-02-13T10:00:57;6.50;99.90
1704;DHT22;849;48.780;9.216;2023-02-13T10:03:31;6.50;99.90
1704;DHT22;849;48.780;9.216;2023-02-13T10:08:54;6.40;99.90
1704;DHT22;849;48.780;9.216;2023-02-13T10:11:44;6.40;99.90
1704;DHT22;849;48.780;9.216;2023-02-13T10:14:29;6.60;99.90
1704;DHT22;849;48.780;9.216;2023-02-13T10:17:04;6.70;99.90
1704;DHT22;849;48.780;9.216;2023-02-13T10:19:50;6.70;99.90
1704;DHT22;849;48.780;9.216;2023-02-13T10:22:25;6.60;99.90
1704;DHT22;849;48.780;9.216;2023-02-13T10:25:03;6.70;99.90
1704;DHT22;849;48.780;9.216;2023-02-13T10:27:34;6.70;99.90
1704;DHT22;849;48.780;9.216;2023-02-13T10:30:29;6.80;99.90
1704;DHT22;849;48.780;9.216;2023-02-13T10:33:14;6.80;99.90
1704;DHT22;849;48.780;9.216;2023-02-13T10:35:56;6.70;99.90
1704;DHT22;849;48.780;9.216;2023-02-13T10:38:23;6.80;99.90
1704;DHT22;849;48.780;9.216;2023-02-13T10:41:24;6.90;99.90
1704;DHT22;849;48.780;9.216;2023-02-13T10:44:08;7.00;99.90
1704;DHT22;849;48.780;9.216;2023-02-13T11:00:29;7.30;99.90
1704;DHT22;849;48.780;9.216;2023-02-13T11:02:57;7.30;99.90
1704;DHT22;849;48.780;9.216;2023-02-13T11:05:27;7.30;99.90
1704;DHT22;849;48.780;9.216;2023-02-13T11:07:55;7.40;99.90
1704;DHT22;849;48.780;9.216;2023-02-13T11:10:23;7.40;99.90
1704;DHT22;849;48.780;9.216;2023-02-13T11:12:50;7.50;99.90
1704;DHT22;849;48.780;9.216;2023-02-13T11:15:26;7.60;99.90
1704;DHT22;849;48.780;9.216;2023-02-13T11:17:58;7.60;99.90
1704;DHT22;849;48.780;9.216;2023-02-13T11:20:36;7.70;99.90
1704;DHT22;849;48.780;9.216;2023-02-13T11:26:14;7.80;99.90
1704;DHT22;849;48.780;9.216;2023-02-13T11:28:55;7.80;99.90
1704;DHT22;849;48.780;9.216;2023-02-13T11:31:27;7.80;99.90
1704;DHT22;849;48.780;9.216;2023-02-13T11:33:54;7.90;99.90
1704;DHT22;849;48.780;9.216;2023-02-13T11:39:18;7.90;99.90
1704;DHT22;849;48.780;9.216;2023-02-13T11:41:45;7.80;99.90
1704;DHT22;849;48.780;9.216;2023-02-13T11:44:26;8.00;99.90
1704;DHT22;849;48.780;9.216;2023-02-13T11:46:54;8.10;99.90
1704;DHT22;849;48.780;9.216;2023-02-13T11:49:23;8.10;99.90
1704;DHT22;849;48.780;9.216;2023-02-13T11:51:57;8.00;99.90
1704;DHT22;849;48.780;9.216;2023-02-13T11:57:21;7.80;99.90
1704;DHT22;849;48.780;9.216;2023-02-13T11:59:49;7.90;99.90
1704;DHT22;849;48.780;9.216;2023-02-13T12:02:21;7.90;99.90
1704;DHT22;849;48.780;9.216;2023-02-13T12:04:49;8.10;99.90
1704;DHT22;849;48.780;9.216;2023-02-13T12:07:24;8.20;99.90
1704;DHT22;849;48.780;9.216;2023-02-13T12:10:00;8.10;99.90
1704;DHT22;849;48.780;9.216;2023-02-13T12:12:41;8.20;99.90
1704;DHT22;849;48.780;9.216;2023-02-13T12:15:40;8.20;99.90
1704;DHT22;849;48.780;9.216;2023-02-13T12:18:22;8.20;99.90
1704;DHT22;849;48.780;9.216;2023-02-13T12:23:31;8.40;99.90
1704;DHT22;849;48.780;9.216;2023-02-13T12:32:03;8.40;99.90
1704;DHT22;849;48.780;9.216;2023-02-13T12:49:07;8.70;99.90
1704;DHT22;849;48.780;9.216;2023-02-13T13:12:07;8.90;99.90
1704;DHT22;849;48.780;9.216;2023-02-13T13:17:58;9.00;99.90
1704;DHT22;849;48.780;9.216;2023-02-13T13:25:50;9.20;99.90
1704;DHT22;849;48.780;9.216;2023-02-13T13:28:28;9.10;99.90
1704;DHT22;849;48.780;9.216;2023-02-13T13:30:57;9.20;99.90
1704;DHT22;849;48.780;9.216;2023-02-13T13:33:24;9.20;99.90
1704;DHT22;849;48.780;9.216;2023-02-13T13:36:00;9.20;99.90
1704;DHT22;849;48.780;9.216;2023-02-13T13:41:12;9.40;99.90
1704;DHT22;849;48.780;9.216;2023-02-13T13:51:43;9.50;99.90
1704;DHT22;849;48.780;9.216;2023-02-13T14:05:14;9.50;99.90
1704;DHT22;849;48.780;9.216;2023-02-13T14:07:44;9.60;99.90
1704;DHT22;849;48.780;9.216;2023-02-13T14:21:00;9.70;99.90
1704;DHT22;849;48.780;9.216;2023-02-13T14:36:37;10.00;99.90
1704;DHT22;849;48.780;9.216;2023-02-13T14:39:05;9.70;99.90
1704;DHT22;849;48.780;9.216;2023-02-13T14:44:24;9.70;99.90
1704;DHT22;849;48.780;9.216;2023-02-13T14:46:51;9.80;99.90
1704;DHT22;849;48.780;9.216;2023-02-13T14:49:27;9.90;99.90
1704;DHT22;849;48.780;9.216;2023-02-13T14:52:03;10.00;99.90
1704;DHT22;849;48.780;9.216;2023-02-13T14:54:42;9.90;99.90
1704;DHT22;849;48.780;9.216;2023-02-13T14:57:17;10.00;99.90
1704;DHT22;849;48.780;9.216;2023-02-13T14:59:52;10.10;99.90
1704;DHT22;849;48.780;9.216;2023-02-13T15:02:39;10.20;99.90
1704;DHT22;849;48.780;9.216;2023-02-13T15:05:11;10.10;99.90
1704;DHT22;849;48.780;9.216;2023-02-13T15:08:04;10.10;99.90
1704;DHT22;849;48.780;9.216;2023-02-13T15:10:46;10.10;99.90
1704;DHT22;849;48.780;9.216;2023-02-13T15:13:17;10.10;99.90
1704;DHT22;849;48.780;9.216;2023-02-13T15:15:46;10.10;99.90
1704;DHT22;849;48.780;9.216;2023-02-13T15:21:03;10.00;99.90
1704;DHT22;849;48.780;9.216;2023-02-13T15:23:30;10.00;99.90
1704;DHT22;849;48.780;9.216;2023-02-13T15:26:01;10.00;99.90
1704;DHT22;849;48.780;9.216;2023-02-13T15:28:28;10.00;99.90
1704;DHT22;849;48.780;9.216;2023-02-13T15:31:02;9.90;99.90
1704;DHT22;849;48.780;9.216;2023-02-13T15:33:44;9.90;99.90
1704;DHT22;849;48.780;9.216;2023-02-13T15:36:17;9.80;99.90
1704;DHT22;849;48.780;9.216;2023-02-13T15:38:43;9.90;99.90
1704;DHT22;849;48.780;9.216;2023-02-13T15:41:12;9.90;99.90
1704;DHT22;849;48.780;9.216;2023-02-13T15:43:42;9.90;99.90
1704;DHT22;849;48.780;9.216;2023-02-13T15:46:25;9.80;99.90
1704;DHT22;849;48.780;9.216;2023-02-13T15:48:52;9.70;99.90
1704;DHT22;849;48.780;9.216;2023-02-13T15:51:24;9.70;99.90
1704;DHT22;849;48.780;9.216;2023-02-13T15:53:55;9.70;99.90
1704;DHT22;849;48.780;9.216;2023-02-13T15:56:22;9.70;99.90
1704;DHT22;849;48.780;9.216;2023-02-13T15:58:49;9.70;99.90
1704;DHT22;849;48.780;9.216;2023-02-13T16:01:16;9.70;99.90
1704;DHT22;849;48.780;9.216;2023-02-13T16:03:43;9.60;99.90
1704;DHT22;849;48.780;9.216;2023-02-13T16:06:16;9.50;99.90
1704;DHT22;849;48.780;9.216;2023-02-13T16:08:48;9.30;99.90
1704;DHT22;849;48.780;9.216;2023-02-13T16:11:17;9.20;99.90
1704;DHT22;849;48.780;9.216;2023-02-13T16:16:54;9.30;99.90
1704;DHT22;849;48.780;9.216;2023-02-13T16:20:06;9.30;99.90
1704;DHT22;849;48.780;9.216;2023-02-13T16:22:47;9.20;99.90
1704;DHT22;849;48.780;9.216;2023-02-13T16:25:22;9.30;99.90
1704;DHT22;849;48.780;9.216;2023-02-13T16:27:51;9.20;99.90
1704;DHT22;849;48.780;9.216;2023-02-13T16:35:43;9.20;99.90
1704;DHT22;849;48.780;9.216;2023-02-13T16:41:02;9.10;99.90
1704;DHT22;849;48.780;9.216;2023-02-13T16:48:43;9.00;99.90
1704;DHT22;849;48.780;9.216;2023-02-13T16:51:10;8.90;99.90
1704;DHT22;849;48.780;9.216;2023-02-13T16:53:36;8.90;99.90
1704;DHT22;849;48.780;9.216;2023-02-13T16:56:06;8.80;99.90
1704;DHT22;849;48.780;9.216;2023-02-13T16:58:32;8.70;99.90
1704;DHT22;849;48.780;9.216;2023-02-13T17:00:59;8.70;99.90
1704;DHT22;849;48.780;9.216;2023-02-13T17:03:27;8.70;99.90
1704;DHT22;849;48.780;9.216;2023-02-13T17:05:53;8.70;99.90
1704;DHT22;849;48.780;9.216;2023-02-13T17:08:21;8.60;99.90
1704;DHT22;849;48.780;9.216;2023-02-13T17:11:03;8.60;99.90
1704;DHT22;849;48.780;9.216;2023-02-13T17:13:29;8.60;99.90
1704;DHT22;849;48.780;9.216;2023-02-13T17:15:55;8.40;99.90
1704;DHT22;849;48.780;9.216;2023-02-13T17:18:21;8.30;99.90
1704;DHT22;849;48.780;9.216;2023-02-13T17:20:46;8.30;99.90
1704;DHT22;849;48.780;9.216;2023-02-13T17:23:24;8.40;99.90
1704;DHT22;849;48.780;9.216;2023-02-13T17:25:51;8.40;99.90
1704;DHT22;849;48.780;9.216;2023-02-13T17:28:23;8.40;99.90
1704;DHT22;849;48.780;9.216;2023-02-13T17:30:51;8.30;99.90
1704;DHT22;849;48.780;9.216;2023-02-13T17:33:26;8.40;99.90
1704;DHT22;849;48.780;9.216;2023-02-13T17:35:52;8.30;99.90
1704;DHT22;849;48.780;9.216;2023-02-13T17:38:18;8.30;99.90
1704;DHT22;849;48.780;9.216;2023-02-13T17:40:45;8.30;99.90
1704;DHT22;849;48.780;9.216;2023-02-13T17:43:12;8.30;99.90
1704;DHT22;849;48.780;9.216;2023-02-13T17:45:39;8.30;99.90
1704;DHT22;849;48.780;9.216;2023-02-13T17:48:05;8.20;99.90
1704;DHT22;849;48.780;9.216;2023-02-13T17:50:32;8.20;99.90
1704;DHT22;849;48.780;9.216;2023-02-13T17:53:02;8.10;99.90
1704;DHT22;849;48.780;9.216;2023-02-13T17:55:30;8.00;99.90
1704;DHT22;849;48.780;9.216;2023-02-13T17:57:57;7.80;99.90
1704;DHT22;849;48.780;9.216;2023-02-13T18:00:28;7.70;99.90
1704;DHT22;849;48.780;9.216;2023-02-13T18:02:55;7.60;99.90
1704;DHT22;849;48.780;9.216;2023-02-13T18:05:21;7.70;99.90
1704;DHT22;849;48.780;9.216;2023-02-13T18:07:47;7.60;99.90
1704;DHT22;849;48.780;9.216;2023-02-13T18:10:14;7.70;99.90
1704;DHT22;849;48.780;9.216;2023-02-13T18:12:40;7.80;99.90
1704;DHT22;849;48.780;9.216;2023-02-13T18:15:06;7.80;99.90
1704;DHT22;849;48.780;9.216;2023-02-13T18:17:31;7.80;99.90
1704;DHT22;849;48.780;9.216;2023-02-13T18:19:57;7.80;99.90
1704;DHT22;849;48.780;9.216;2023-02-13T18:22:23;7.70;99.90
1704;DHT22;849;48.780;9.216;2023-02-13T18:24:49;7.80;99.90
1704;DHT22;849;48.780;9.216;2023-02-13T18:27:14;7.70;99.90
1704;DHT22;849;48.780;9.216;2023-02-13T18:29:40;7.70;99.90
1704;DHT22;849;48.780;9.216;2023-02-13T18:32:06;7.70;99.90
1704;DHT22;849;48.780;9.216;2023-02-13T18:34:34;7.60;99.90
1704;DHT22;849;48.780;9.216;2023-02-13T18:37:00;7.60;99.90
1704;DHT22;849;48.780;9.216;2023-02-13T18:39:26;7.60;99.90
1704;DHT22;849;48.780;9.216;2023-02-13T18:41:51;7.60;99.90
1704;DHT22;849;48.780;9.216;2023-02-13T18:44:17;7.50;99.90
1704;DHT22;849;48.780;9.216;2023-02-13T18:46:42;7.60;99.90
1704;DHT22;849;48.780;9.216;2023-02-13T18:49:09;7.60;99.90
1704;DHT22;849;48.780;9.216;2023-02-13T18:51:37;7.60;99.90
1704;DHT22;849;48.780;9.216;2023-02-13T18:54:03;7.50;99.90
1704;DHT22;849;48.780;9.216;2023-02-13T18:56:29;7.50;99.90
1704;DHT22;849;48.780;9.216;2023-02-13T18:58:54;7.50;99.90
1704;DHT22;849;48.780;9.216;2023-02-13T19:01:20;7.50;99.90
1704;DHT22;849;48.780;9.216;2023-02-13T19:03:48;7.50;99.90
1704;DHT22;849;48.780;9.216;2023-02-13T19:06:17;7.40;99.90
1704;DHT22;849;48.780;9.216;2023-02-13T19:08:43;7.30;99.90
1704;DHT22;849;48.780;9.216;2023-02-13T19:11:11;7.20;99.90
1704;DHT22;849;48.780;9.216;2023-02-13T19:13:38;7.20;99.90
1704;DHT22;849;48.780;9.216;2023-02-13T19:16:12;7.10;99.90
1704;DHT22;849;48.780;9.216;2023-02-13T19:18:41;7.00;99.90
1704;DHT22;849;48.780;9.216;2023-02-13T19:21:07;6.90;99.90
1704;DHT22;849;48.780;9.216;2023-02-13T19:23:33;7.00;99.90
1704;DHT22;849;48.780;9.216;2023-02-13T19:26:04;7.00;99.90
1704;DHT22;849;48.780;9.216;2023-02-13T19:28:30;7.00;99.90
1704;DHT22;849;48.780;9.216;2023-02-13T19:31:01;7.00;99.90
1704;DHT22;849;48.780;9.216;2023-02-13T19:33:28;7.00;99.90
1704;DHT22;849;48.780;9.216;2023-02-13T19:36:04;7.00;99.90
1704;DHT22;849;48.780;9.216;2023-02-13T19:38:30;7.10;99.90
1704;DHT22;849;48.780;9.216;2023-02-13T19:41:05;6.90;99.90
1704;DHT22;849;48.780;9.216;2023-02-13T19:43:31;6.90;99.90
1704;DHT22;849;48.780;9.216;2023-02-13T19:46:00;6.80;99.90
1704;DHT22;849;48.780;9.216;2023-02-13T19:48:26;6.80;99.90
1704;DHT22;849;48.780;9.216;2023-02-13T19:50:52;6.90;99.90
1704;DHT22;849;48.780;9.216;2023-02-13T19:53:17;6.90;99.90
1704;DHT22;849;48.780;9.216;2023-02-13T19:55:43;6.90;99.90
1704;DHT22;849;48.780;9.216;2023-02-13T19:58:09;6.90;99.90
1704;DHT22;849;48.780;9.216;2023-02-13T20:00:35;6.80;99.90